sensor_id;sensor_type;location;lat;lon;timestamp;temperature;humidity
17033;DHT22;63208;52.178;21.016;2023-04-06T00:02:14;3.60;99.90
17033;DHT22;63208;52.178;21.016;2023-04-06T00:04:41;3.60;99.90
17033;DHT22;63208;52.178;21.016;2023-04-06T00:12:13;3.40;99.90
17033;DHT22;63208;52.178;21.016;2023-04-06T00:14:55;3.40;99.90
17033;DHT22;63208;52.178;21.016;2023-04-06T00:23:30;3.50;99.90
17033;DHT22;63208;52.178;21.016;2023-04-06T00:25:56;3.40;99.90
17033;DHT22;63208;52.178;21.016;2023-04-06T00:28:23;3.50;99.90
17033;DHT22;63208;52.178;21.016;2023-04-06T00:30:51;3.50;99.90
17033;DHT22;63208;52.178;21.016;2023-04-06T00:33:20;3.60;99.90
17033;DHT22;63208;52.178;21.016;2023-04-06T00:35:47;3.40;99.90
17033;DHT22;63208;52.178;21.016;2023-04-06T00:38:14;3.40;99.90
17033;DHT22;63208;52.178;21.016;2023-04-06T00:40:42;3.40;99.90
17033;DHT22;63208;52.178;21.016;2023-04-06T00:43:10;3.40;99.90
17033;DHT22;63208;52.178;21.016;2023-04-06T00:45:38;3.40;99.90
17033;DHT22;63208;52.178;21.016;2023-04-06T00:48:05;3.40;99.90
17033;DHT22;63208;52.178;21.016;2023-04-06T00:50:32;3.40;99.90
17033;DHT22;63208;52.178;21.016;2023-04-06T00:52:59;3.40;99.90
17033;DHT22;63208;52.178;21.016;2023-04-06T00:55:26;3.40;99.90
17033;DHT22;63208;52.178;21.016;2023-04-06T00:57:54;3.40;99.90
17033;DHT22;63208;52.178;21.016;2023-04-06T01:00:23;3.40;99.90
17033;DHT22;63208;52.178;21.016;2023-04-06T01:02:49;3.40;99.90
17033;DHT22;63208;52.178;21.016;2023-04-06T01:05:16;3.40;99.90
17033;DHT22;63208;52.178;21.016;2023-04-06T01:07:43;3.40;99.90
17033;DHT22;63208;52.178;21.016;2023-04-06T01:10:10;3.40;99.90
17033;DHT22;63208;52.178;21.016;2023-04-06T01:12:36;3.50;99.90
17033;DHT22;63208;52.178;21.016;2023-04-06T01:15:06;3.40;99.90
17033;DHT22;63208;52.178;21.016;2023-04-06T01:17:33;3.40;99.90
17033;DHT22;63208;52.178;21.016;2023-04-06T01:19:59;3.40;99.90
17033;DHT22;63208;52.178;21.016;2023-04-06T01:22:27;3.30;99.90
17033;DHT22;63208;52.178;21.016;2023-04-06T01:24:54;3.40;99.90
17033;DHT22;63208;52.178;21.016;2023-04-06T01:27:22;3.40;99.90
17033;DHT22;63208;52.178;21.016;2023-04-06T01:29:48;3.40;99.90
17033;DHT22;63208;52.178;21.016;2023-04-06T01:32:15;3.40;99.90
17033;DHT22;63208;52.178;21.016;2023-04-06T01:34:42;3.50;99.90
17033;DHT22;63208;52.178;21.016;2023-04-06T01:37:08;4.00;99.90
17033;DHT22;63208;52.178;21.016;2023-04-06T01:39:37;3.40;99.90
17033;DHT22;63208;52.178;21.016;2023-04-06T01:42:03;3.80;99.90
17033;DHT22;63208;52.178;21.016;2023-04-06T01:44:30;3.40;99.90
17033;DHT22;63208;52.178;21.016;2023-04-06T01:46:57;3.40;99.90
17033;DHT22;63208;52.178;21.016;2023-04-06T01:49:23;3.30;99.90
17033;DHT22;63208;52.178;21.016;2023-04-06T01:51:51;3.30;99.90
17033;DHT22;63208;52.178;21.016;2023-04-06T01:54:17;3.40;99.90
17033;DHT22;63208;52.178;21.016;2023-04-06T01:56:46;3.40;99.90
17033;DHT22;63208;52.178;21.016;2023-04-06T01:59:12;3.40;99.90
17033;DHT22;63208;52.178;21.016;2023-04-06T02:01:39;3.40;99.90
17033;DHT22;63208;52.178;21.016;2023-04-06T02:04:06;3.50;99.90
17033;DHT22;63208;52.178;21.016;2023-04-06T02:06:32;3.40;99.90
17033;DHT22;63208;52.178;21.016;2023-04-06T02:08:59;3.40;99.90
17033;DHT22;63208;52.178;21.016;2023-04-06T02:11:26;4.30;99.90
17033;DHT22;63208;52.178;21.016;2023-04-06T02:13:54;3.30;99.90
17033;DHT22;63208;52.178;21.016;2023-04-06T02:16:21;3.40;99.90
17033;DHT22;63208;52.178;21.016;2023-04-06T02:18:49;3.40;99.90
17033;DHT22;63208;52.178;21.016;2023-04-06T02:21:16;3.40;99.90
17033;DHT22;63208;52.178;21.016;2023-04-06T02:23:45;3.30;99.90
17033;DHT22;63208;52.178;21.016;2023-04-06T02:26:12;3.30;99.90
17033;DHT22;63208;52.178;21.016;2023-04-06T02:28:38;3.30;99.90
17033;DHT22;63208;52.178;21.016;2023-04-06T02:31:07;3.30;99.90
17033;DHT22;63208;52.178;21.016;2023-04-06T02:33:33;3.30;99.90
17033;DHT22;63208;52.178;21.016;2023-04-06T02:36:00;3.30;99.90
17033;DHT22;63208;52.178;21.016;2023-04-06T02:38:27;3.30;99.90
17033;DHT22;63208;52.178;21.016;2023-04-06T02:40:53;3.30;99.90
17033;DHT22;63208;52.178;21.016;2023-04-06T02:43:20;3.30;99.90
17033;DHT22;63208;52.178;21.016;2023-04-06T02:45:47;3.30;99.90
17033;DHT22;63208;52.178;21.016;2023-04-06T02:48:15;3.40;99.90
17033;DHT22;63208;52.178;21.016;2023-04-06T02:50:41;3.30;99.90
17033;DHT22;63208;52.178;21.016;2023-04-06T02:53:08;3.20;99.90
17033;DHT22;63208;52.178;21.016;2023-04-06T02:55:35;3.20;99.90
17033;DHT22;63208;52.178;21.016;2023-04-06T02:58:01;3.20;99.90
17033;DHT22;63208;52.178;21.016;2023-04-06T03:00:28;3.30;99.90
17033;DHT22;63208;52.178;21.016;2023-04-06T03:02:55;3.20;99.90
17033;DHT22;63208;52.178;21.016;2023-04-06T03:05:23;3.30;99.90
17033;DHT22;63208;52.178;21.016;2023-04-06T03:07:50;3.20;99.90
17033;DHT22;63208;52.178;21.016;2023-04-06T03:10:16;3.20;99.90
17033;DHT22;63208;52.178;21.016;2023-04-06T03:12:43;3.10;99.90
17033;DHT22;63208;52.178;21.016;2023-04-06T03:15:10;3.10;99.90
17033;DHT22;63208;52.178;21.016;2023-04-06T03:17:37;3.10;99.90
17033;DHT22;63208;52.178;21.016;2023-04-06T03:20:04;3.10;99.90
17033;DHT22;63208;52.178;21.016;2023-04-06T03:22:32;3.10;99.90
17033;DHT22;63208;52.178;21.016;2023-04-06T03:24:59;3.10;99.90
17033;DHT22;63208;52.178;21.016;2023-04-06T03:27:25;3.10;99.90
17033;DHT22;63208;52.178;21.016;2023-04-06T03:29:52;3.10;99.90
17033;DHT22;63208;52.178;21.016;2023-04-06T03:32:19;3.00;99.90
17033;DHT22;63208;52.178;21.016;2023-04-06T03:34:45;3.00;99.90
17033;DHT22;63208;52.178;21.016;2023-04-06T03:37:12;2.90;99.90
17033;DHT22;63208;52.178;21.016;2023-04-06T03:39:40;3.00;99.90
17033;DHT22;63208;52.178;21.016;2023-04-06T03:42:07;3.10;99.90
17033;DHT22;63208;52.178;21.016;2023-04-06T03:44:34;3.00;99.90
17033;DHT22;63208;52.178;21.016;2023-04-06T03:47:00;3.00;99.90
17033;DHT22;63208;52.178;21.016;2023-04-06T03:49:27;3.00;99.90
17033;DHT22;63208;52.178;21.016;2023-04-06T03:51:55;3.00;99.90
17033;DHT22;63208;52.178;21.016;2023-04-06T03:54:22;2.90;99.90
17033;DHT22;63208;52.178;21.016;2023-04-06T03:56:50;2.90;99.90
17033;DHT22;63208;52.178;21.016;2023-04-06T03:59:17;2.80;99.90
17033;DHT22;63208;52.178;21.016;2023-04-06T04:01:43;2.90;99.90
17033;DHT22;63208;52.178;21.016;2023-04-06T04:04:10;2.90;99.90
17033;DHT22;63208;52.178;21.016;2023-04-06T04:06:37;2.80;99.90
17033;DHT22;63208;52.178;21.016;2023-04-06T04:09:03;3.00;99.90
17033;DHT22;63208;52.178;21.016;2023-04-06T04:11:30;2.90;99.90
17033;DHT22;63208;52.178;21.016;2023-04-06T04:13:58;2.90;99.90
17033;DHT22;63208;52.178;21.016;2023-04-06T04:16:25;2.90;99.90
17033;DHT22;63208;52.178;21.016;2023-04-06T04:18:52;2.90;99.90
17033;DHT22;63208;52.178;21.016;2023-04-06T04:21:19;2.90;99.90
17033;DHT22;63208;52.178;21.016;2023-04-06T04:23:46;2.80;99.90
17033;DHT22;63208;52.178;21.016;2023-04-06T04:26:12;2.90;99.90
17033;DHT22;63208;52.178;21.016;2023-04-06T04:28:39;2.80;99.90
17033;DHT22;63208;52.178;21.016;2023-04-06T04:31:07;2.90;99.90
17033;DHT22;63208;52.178;21.016;2023-04-06T04:33:34;3.40;99.90
17033;DHT22;63208;52.178;21.016;2023-04-06T04:36:01;2.80;99.90
17033;DHT22;63208;52.178;21.016;2023-04-06T04:38:27;2.70;99.90
17033;DHT22;63208;52.178;21.016;2023-04-06T04:40:54;2.70;99.90
17033;DHT22;63208;52.178;21.016;2023-04-06T04:43:21;2.80;99.90
17033;DHT22;63208;52.178;21.016;2023-04-06T04:45:48;2.80;99.90
17033;DHT22;63208;52.178;21.016;2023-04-06T04:48:16;2.80;99.90
17033;DHT22;63208;52.178;21.016;2023-04-06T04:50:42;2.80;99.90
17033;DHT22;63208;52.178;21.016;2023-04-06T04:53:09;2.80;99.90
17033;DHT22;63208;52.178;21.016;2023-04-06T04:55:36;2.80;99.90
17033;DHT22;63208;52.178;21.016;2023-04-06T04:58:02;2.80;99.90
17033;DHT22;63208;52.178;21.016;2023-04-06T05:00:29;3.20;99.90
17033;DHT22;63208;52.178;21.016;2023-04-06T05:02:56;2.90;99.90
17033;DHT22;63208;52.178;21.016;2023-04-06T05:05:24;2.90;99.90
17033;DHT22;63208;52.178;21.016;2023-04-06T05:07:51;3.00;99.90
17033;DHT22;63208;52.178;21.016;2023-04-06T05:10:18;2.90;99.90
17033;DHT22;63208;52.178;21.016;2023-04-06T05:12:45;3.00;99.90
17033;DHT22;63208;52.178;21.016;2023-04-06T05:15:12;3.00;99.90
17033;DHT22;63208;52.178;21.016;2023-04-06T05:17:39;3.00;99.90
17033;DHT22;63208;52.178;21.016;2023-04-06T05:20:06;3.00;99.90
17033;DHT22;63208;52.178;21.016;2023-04-06T05:22:35;3.00;99.90
17033;DHT22;63208;52.178;21.016;2023-04-06T05:25:01;2.90;99.90
17033;DHT22;63208;52.178;21.016;2023-04-06T05:27:28;3.00;99.90
17033;DHT22;63208;52.178;21.016;2023-04-06T05:29:55;2.90;99.90
17033;DHT22;63208;52.178;21.016;2023-04-06T05:32:22;2.80;99.90
17033;DHT22;63208;52.178;21.016;2023-04-06T05:34:49;2.80;99.90
17033;DHT22;63208;52.178;21.016;2023-04-06T05:37:16;2.80;99.90
17033;DHT22;63208;52.178;21.016;2023-04-06T05:39:44;2.90;99.90
17033;DHT22;63208;52.178;21.016;2023-04-06T05:42:11;3.10;99.90
17033;DHT22;63208;52.178;21.016;2023-04-06T05:44:38;3.30;99.90
17033;DHT22;63208;52.178;21.016;2023-04-06T05:47:05;3.30;99.90
17033;DHT22;63208;52.178;21.016;2023-04-06T05:49:32;0.70;99.90
17033;DHT22;63208;52.178;21.016;2023-04-06T05:52:00;3.30;99.90
17033;DHT22;63208;52.178;21.016;2023-04-06T05:54:26;3.30;99.90
17033;DHT22;63208;52.178;21.016;2023-04-06T05:56:54;3.30;99.90
17033;DHT22;63208;52.178;21.016;2023-04-06T05:59:21;3.30;99.90
17033;DHT22;63208;52.178;21.016;2023-04-06T06:01:49;3.20;99.90
17033;DHT22;63208;52.178;21.016;2023-04-06T06:04:15;3.20;99.90
17033;DHT22;63208;52.178;21.016;2023-04-06T06:06:42;3.30;99.90
17033;DHT22;63208;52.178;21.016;2023-04-06T06:09:09;3.20;99.90
17033;DHT22;63208;52.178;21.016;2023-04-06T06:11:36;3.40;99.90
17033;DHT22;63208;52.178;21.016;2023-04-06T06:14:04;3.40;99.90
17033;DHT22;63208;52.178;21.016;2023-04-06T06:16:31;2.10;99.90
17033;DHT22;63208;52.178;21.016;2023-04-06T06:18:57;3.40;99.90
17033;DHT22;63208;52.178;21.016;2023-04-06T06:21:24;3.40;99.90
17033;DHT22;63208;52.178;21.016;2023-04-06T06:23:52;3.40;99.90
17033;DHT22;63208;52.178;21.016;2023-04-06T06:26:19;3.50;99.90
17033;DHT22;63208;52.178;21.016;2023-04-06T06:28:47;3.50;99.90
17033;DHT22;63208;52.178;21.016;2023-04-06T06:31:15;3.40;99.90
17033;DHT22;63208;52.178;21.016;2023-04-06T06:33:42;3.40;99.90
17033;DHT22;63208;52.178;21.016;2023-04-06T06:36:09;3.60;99.90
17033;DHT22;63208;52.178;21.016;2023-04-06T06:38:35;3.80;99.90
17033;DHT22;63208;52.178;21.016;2023-04-06T06:41:03;3.80;99.90
17033;DHT22;63208;52.178;21.016;2023-04-06T06:43:30;3.80;99.90
17033;DHT22;63208;52.178;21.016;2023-04-06T06:45:57;0.90;99.90
17033;DHT22;63208;52.178;21.016;2023-04-06T06:48:25;3.70;99.90
17033;DHT22;63208;52.178;21.016;2023-04-06T06:50:52;3.70;99.90
17033;DHT22;63208;52.178;21.016;2023-04-06T06:53:19;3.70;99.90
17033;DHT22;63208;52.178;21.016;2023-04-06T06:55:45;3.60;99.90
17033;DHT22;63208;52.178;21.016;2023-04-06T06:58:14;3.60;99.90
17033;DHT22;63208;52.178;21.016;2023-04-06T07:00:40;3.60;99.90
17033;DHT22;63208;52.178;21.016;2023-04-06T07:03:07;3.60;99.90
17033;DHT22;63208;52.178;21.016;2023-04-06T07:05:35;3.60;99.90
17033;DHT22;63208;52.178;21.016;2023-04-06T07:08:02;3.60;99.90
17033;DHT22;63208;52.178;21.016;2023-04-06T07:10:29;3.60;99.90
17033;DHT22;63208;52.178;21.016;2023-04-06T07:12:56;3.70;99.90
17033;DHT22;63208;52.178;21.016;2023-04-06T07:15:22;3.70;99.90
17033;DHT22;63208;52.178;21.016;2023-04-06T07:17:50;3.90;99.90
17033;DHT22;63208;52.178;21.016;2023-04-06T07:23:06;4.00;99.90
17033;DHT22;63208;52.178;21.016;2023-04-06T07:25:33;4.00;99.90
17033;DHT22;63208;52.178;21.016;2023-04-06T07:28:00;4.00;99.90
17033;DHT22;63208;52.178;21.016;2023-04-06T07:30:27;3.80;99.90
17033;DHT22;63208;52.178;21.016;2023-04-06T07:32:54;3.90;99.90
17033;DHT22;63208;52.178;21.016;2023-04-06T07:35:23;3.90;99.90
17033;DHT22;63208;52.178;21.016;2023-04-06T07:37:51;3.80;99.90
17033;DHT22;63208;52.178;21.016;2023-04-06T07:40:19;3.80;99.90
17033;DHT22;63208;52.178;21.016;2023-04-06T07:42:46;3.70;99.90
17033;DHT22;63208;52.178;21.016;2023-04-06T07:45:13;3.80;99.90
17033;DHT22;63208;52.178;21.016;2023-04-06T07:47:41;3.70;99.90
17033;DHT22;63208;52.178;21.016;2023-04-06T07:50:08;3.80;99.90
17033;DHT22;63208;52.178;21.016;2023-04-06T07:52:35;3.90;99.90
17033;DHT22;63208;52.178;21.016;2023-04-06T07:55:02;4.00;99.90
17033;DHT22;63208;52.178;21.016;2023-04-06T07:57:30;4.10;99.90
17033;DHT22;63208;52.178;21.016;2023-04-06T07:59:57;4.10;99.90
17033;DHT22;63208;52.178;21.016;2023-04-06T08:02:24;4.20;99.90
17033;DHT22;63208;52.178;21.016;2023-04-06T08:04:50;3.90;99.90
17033;DHT22;63208;52.178;21.016;2023-04-06T08:07:17;3.90;99.90
17033;DHT22;63208;52.178;21.016;2023-04-06T08:09:44;4.00;99.90
17033;DHT22;63208;52.178;21.016;2023-04-06T08:12:11;3.90;99.90
17033;DHT22;63208;52.178;21.016;2023-04-06T08:14:39;3.90;99.90
17033;DHT22;63208;52.178;21.016;2023-04-06T08:17:05;4.00;99.90
17033;DHT22;63208;52.178;21.016;2023-04-06T08:19:32;4.20;99.90
17033;DHT22;63208;52.178;21.016;2023-04-06T08:21:59;4.20;99.90
17033;DHT22;63208;52.178;21.016;2023-04-06T08:24:26;4.10;99.90
17033;DHT22;63208;52.178;21.016;2023-04-06T08:26:52;4.30;99.90
17033;DHT22;63208;52.178;21.016;2023-04-06T08:29:19;4.20;99.90
17033;DHT22;63208;52.178;21.016;2023-04-06T08:31:47;4.20;99.90
17033;DHT22;63208;52.178;21.016;2023-04-06T08:34:20;4.30;99.90
17033;DHT22;63208;52.178;21.016;2023-04-06T08:36:57;4.20;99.90
17033;DHT22;63208;52.178;21.016;2023-04-06T08:39:24;4.10;99.90
17033;DHT22;63208;52.178;21.016;2023-04-06T08:41:52;3.90;99.90
17033;DHT22;63208;52.178;21.016;2023-04-06T08:44:22;3.80;99.90
17033;DHT22;63208;52.178;21.016;2023-04-06T08:46:50;3.80;99.90
17033;DHT22;63208;52.178;21.016;2023-04-06T08:49:18;3.90;99.90
17033;DHT22;63208;52.178;21.016;2023-04-06T08:51:45;3.70;99.90
17033;DHT22;63208;52.178;21.016;2023-04-06T08:54:12;3.70;99.90
17033;DHT22;63208;52.178;21.016;2023-04-06T08:56:39;3.60;99.90
17033;DHT22;63208;52.178;21.016;2023-04-06T08:59:06;3.80;99.90
17033;DHT22;63208;52.178;21.016;2023-04-06T09:01:33;3.70;99.90
17033;DHT22;63208;52.178;21.016;2023-04-06T09:04:01;3.70;99.90
17033;DHT22;63208;52.178;21.016;2023-04-06T09:06:30;3.70;99.90
17033;DHT22;63208;52.178;21.016;2023-04-06T09:08:57;3.70;99.90
17033;DHT22;63208;52.178;21.016;2023-04-06T09:11:24;3.70;99.90
17033;DHT22;63208;52.178;21.016;2023-04-06T09:13:52;3.80;99.90
17033;DHT22;63208;52.178;21.016;2023-04-06T09:16:19;3.80;99.90
17033;DHT22;63208;52.178;21.016;2023-04-06T09:19:03;3.80;99.90
17033;DHT22;63208;52.178;21.016;2023-04-06T09:21:32;3.80;99.90
17033;DHT22;63208;52.178;21.016;2023-04-06T09:23:59;3.90;99.90
17033;DHT22;63208;52.178;21.016;2023-04-06T09:26:26;3.80;99.90
17033;DHT22;63208;52.178;21.016;2023-04-06T09:28:56;3.50;99.90
17033;DHT22;63208;52.178;21.016;2023-04-06T09:31:23;3.60;99.90
17033;DHT22;63208;52.178;21.016;2023-04-06T09:36:48;3.60;99.90
17033;DHT22;63208;52.178;21.016;2023-04-06T09:39:14;3.60;99.90
17033;DHT22;63208;52.178;21.016;2023-04-06T09:41:41;3.70;99.90
17033;DHT22;63208;52.178;21.016;2023-04-06T09:44:08;3.70;99.90
17033;DHT22;63208;52.178;21.016;2023-04-06T09:46:36;3.70;99.90
17033;DHT22;63208;52.178;21.016;2023-04-06T09:49:03;3.60;99.90
17033;DHT22;63208;52.178;21.016;2023-04-06T09:51:31;3.60;99.90
17033;DHT22;63208;52.178;21.016;2023-04-06T09:53:59;3.50;99.90
17033;DHT22;63208;52.178;21.016;2023-04-06T09:56:28;3.50;99.90
17033;DHT22;63208;52.178;21.016;2023-04-06T09:59:02;3.50;99.90
17033;DHT22;63208;52.178;21.016;2023-04-06T10:01:29;3.70;99.90
17033;DHT22;63208;52.178;21.016;2023-04-06T10:04:00;3.60;99.90
17033;DHT22;63208;52.178;21.016;2023-04-06T10:06:32;3.50;99.90
17033;DHT22;63208;52.178;21.016;2023-04-06T10:09:02;3.60;99.90
17033;DHT22;63208;52.178;21.016;2023-04-06T10:11:30;3.20;99.90
17033;DHT22;63208;52.178;21.016;2023-04-06T10:13:57;3.20;99.90
17033;DHT22;63208;52.178;21.016;2023-04-06T10:16:25;3.10;99.90
17033;DHT22;63208;52.178;21.016;2023-04-06T10:18:54;3.10;99.90
17033;DHT22;63208;52.178;21.016;2023-04-06T10:21:23;2.80;99.90
17033;DHT22;63208;52.178;21.016;2023-04-06T10:23:51;2.90;99.90
17033;DHT22;63208;52.178;21.016;2023-04-06T10:26:30;2.90;99.90
17033;DHT22;63208;52.178;21.016;2023-04-06T10:29:01;3.00;99.90
17033;DHT22;63208;52.178;21.016;2023-04-06T10:31:28;2.80;99.90
17033;DHT22;63208;52.178;21.016;2023-04-06T10:33:55;2.90;99.90
17033;DHT22;63208;52.178;21.016;2023-04-06T10:36:22;2.90;99.90
17033;DHT22;63208;52.178;21.016;2023-04-06T10:38:53;2.90;99.90
17033;DHT22;63208;52.178;21.016;2023-04-06T10:41:20;2.80;99.90
17033;DHT22;63208;52.178;21.016;2023-04-06T10:43:54;2.80;99.90
17033;DHT22;63208;52.178;21.016;2023-04-06T10:46:24;2.80;99.90
17033;DHT22;63208;52.178;21.016;2023-04-06T10:48:51;2.80;99.90
17033;DHT22;63208;52.178;21.016;2023-04-06T10:51:18;3.10;99.90
17033;DHT22;63208;52.178;21.016;2023-04-06T10:53:46;3.00;99.90
17033;DHT22;63208;52.178;21.016;2023-04-06T10:56:14;3.00;99.90
17033;DHT22;63208;52.178;21.016;2023-04-06T10:58:44;3.00;99.90
17033;DHT22;63208;52.178;21.016;2023-04-06T11:01:14;3.20;99.90
17033;DHT22;63208;52.178;21.016;2023-04-06T11:03:44;3.20;99.90
17033;DHT22;63208;52.178;21.016;2023-04-06T11:06:11;3.10;99.90
17033;DHT22;63208;52.178;21.016;2023-04-06T11:08:43;3.10;99.90
17033;DHT22;63208;52.178;21.016;2023-04-06T11:11:11;3.00;99.90
17033;DHT22;63208;52.178;21.016;2023-04-06T11:13:53;3.10;99.90
17033;DHT22;63208;52.178;21.016;2023-04-06T11:16:38;3.20;99.90
17033;DHT22;63208;52.178;21.016;2023-04-06T11:19:22;3.20;99.90
17033;DHT22;63208;52.178;21.016;2023-04-06T11:21:49;3.20;99.90
17033;DHT22;63208;52.178;21.016;2023-04-06T11:24:16;3.20;99.90
17033;DHT22;63208;52.178;21.016;2023-04-06T11:26:45;3.10;99.90
17033;DHT22;63208;52.178;21.016;2023-04-06T11:29:14;3.10;99.90
17033;DHT22;63208;52.178;21.016;2023-04-06T11:31:44;3.30;99.90
17033;DHT22;63208;52.178;21.016;2023-04-06T11:34:12;3.30;99.90
17033;DHT22;63208;52.178;21.016;2023-04-06T11:36:42;3.70;99.90
17033;DHT22;63208;52.178;21.016;2023-04-06T11:39:09;3.00;99.90
17033;DHT22;63208;52.178;21.016;2023-04-06T11:41:38;3.00;99.90
17033;DHT22;63208;52.178;21.016;2023-04-06T11:44:06;4.50;99.90
17033;DHT22;63208;52.178;21.016;2023-04-06T11:46:52;3.20;99.90
17033;DHT22;63208;52.178;21.016;2023-04-06T11:49:19;3.20;99.90
17033;DHT22;63208;52.178;21.016;2023-04-06T11:51:46;3.20;99.90
17033;DHT22;63208;52.178;21.016;2023-04-06T11:54:13;3.90;99.90
17033;DHT22;63208;52.178;21.016;2023-04-06T11:56:39;3.30;99.90
17033;DHT22;63208;52.178;21.016;2023-04-06T12:08:17;3.50;99.90
17033;DHT22;63208;52.178;21.016;2023-04-06T12:10:44;3.50;99.90
17033;DHT22;63208;52.178;21.016;2023-04-06T12:13:11;3.50;99.90
17033;DHT22;63208;52.178;21.016;2023-04-06T12:15:37;3.50;99.90
17033;DHT22;63208;52.178;21.016;2023-04-06T12:18:04;3.90;99.90
17033;DHT22;63208;52.178;21.016;2023-04-06T12:20:31;3.60;99.90
17033;DHT22;63208;52.178;21.016;2023-04-06T12:29:02;3.60;99.90
17033;DHT22;63208;52.178;21.016;2023-04-06T12:31:32;3.70;99.90
17033;DHT22;63208;52.178;21.016;2023-04-06T12:33:59;3.80;99.90
17033;DHT22;63208;52.178;21.016;2023-04-06T12:36:26;3.80;99.90
17033;DHT22;63208;52.178;21.016;2023-04-06T12:38:53;3.70;99.90
17033;DHT22;63208;52.178;21.016;2023-04-06T12:41:20;3.70;99.90
17033;DHT22;63208;52.178;21.016;2023-04-06T12:43:48;3.70;99.90
17033;DHT22;63208;52.178;21.016;2023-04-06T12:46:17;3.80;99.90
17033;DHT22;63208;52.178;21.016;2023-04-06T12:48:44;4.50;99.90
17033;DHT22;63208;52.178;21.016;2023-04-06T12:51:10;3.70;99.90
17033;DHT22;63208;52.178;21.016;2023-04-06T12:53:37;3.70;99.90
17033;DHT22;63208;52.178;21.016;2023-04-06T12:56:12;3.90;99.90
17033;DHT22;63208;52.178;21.016;2023-04-06T12:58:39;4.00;99.90
17033;DHT22;63208;52.178;21.016;2023-04-06T13:01:07;3.90;99.90
17033;DHT22;63208;52.178;21.016;2023-04-06T13:03:35;3.90;99.90
17033;DHT22;63208;52.178;21.016;2023-04-06T13:06:02;3.90;99.90
17033;DHT22;63208;52.178;21.016;2023-04-06T13:08:29;4.00;99.90
17033;DHT22;63208;52.178;21.016;2023-04-06T13:10:56;4.00;99.90
17033;DHT22;63208;52.178;21.016;2023-04-06T13:13:23;4.00;99.90
17033;DHT22;63208;52.178;21.016;2023-04-06T13:15:50;3.90;99.90
17033;DHT22;63208;52.178;21.016;2023-04-06T13:18:17;4.00;99.90
17033;DHT22;63208;52.178;21.016;2023-04-06T13:20:45;3.80;99.90
17033;DHT22;63208;52.178;21.016;2023-04-06T13:23:14;3.80;99.90
17033;DHT22;63208;52.178;21.016;2023-04-06T13:28:48;3.70;99.90
17033;DHT22;63208;52.178;21.016;2023-04-06T13:31:14;3.80;99.90
17033;DHT22;63208;52.178;21.016;2023-04-06T13:33:41;3.80;99.90
17033;DHT22;63208;52.178;21.016;2023-04-06T13:36:12;3.80;99.90
17033;DHT22;63208;52.178;21.016;2023-04-06T13:38:39;3.80;99.90
17033;DHT22;63208;52.178;21.016;2023-04-06T13:41:05;3.80;99.90
17033;DHT22;63208;52.178;21.016;2023-04-06T13:43:32;3.80;99.90
17033;DHT22;63208;52.178;21.016;2023-04-06T13:45:59;3.80;99.90
17033;DHT22;63208;52.178;21.016;2023-04-06T13:48:26;3.80;99.90
17033;DHT22;63208;52.178;21.016;2023-04-06T13:50:53;3.70;99.90
17033;DHT22;63208;52.178;21.016;2023-04-06T13:53:21;3.80;99.90
17033;DHT22;63208;52.178;21.016;2023-04-06T13:55:54;4.10;99.90
17033;DHT22;63208;52.178;21.016;2023-04-06T13:58:24;3.90;99.90
17033;DHT22;63208;52.178;21.016;2023-04-06T14:00:51;4.00;99.90
17033;DHT22;63208;52.178;21.016;2023-04-06T14:03:17;4.00;99.90
17033;DHT22;63208;52.178;21.016;2023-04-06T14:05:44;3.90;99.90
17033;DHT22;63208;52.178;21.016;2023-04-06T14:08:11;3.80;99.90
17033;DHT22;63208;52.178;21.016;2023-04-06T14:10:39;3.80;99.90
17033;DHT22;63208;52.178;21.016;2023-04-06T14:13:07;3.70;99.90
17033;DHT22;63208;52.178;21.016;2023-04-06T14:15:34;3.80;99.90
17033;DHT22;63208;52.178;21.016;2023-04-06T14:18:01;3.70;99.90
17033;DHT22;63208;52.178;21.016;2023-04-06T14:20:28;3.70;99.90
17033;DHT22;63208;52.178;21.016;2023-04-06T14:22:57;3.80;99.90
17033;DHT22;63208;52.178;21.016;2023-04-06T14:25:25;3.80;99.90
17033;DHT22;63208;52.178;21.016;2023-04-06T14:27:53;3.80;99.90
17033;DHT22;63208;52.178;21.016;2023-04-06T14:30:20;3.80;99.90
17033;DHT22;63208;52.178;21.016;2023-04-06T14:32:47;3.90;99.90
17033;DHT22;63208;52.178;21.016;2023-04-06T14:35:13;3.90;99.90
17033;DHT22;63208;52.178;21.016;2023-04-06T14:37:40;4.00;99.90
17033;DHT22;63208;52.178;21.016;2023-04-06T14:40:14;4.00;99.90
17033;DHT22;63208;52.178;21.016;2023-04-06T14:42:41;4.00;99.90
17033;DHT22;63208;52.178;21.016;2023-04-06T14:45:09;4.00;99.90
17033;DHT22;63208;52.178;21.016;2023-04-06T14:47:39;3.90;99.90
17033;DHT22;63208;52.178;21.016;2023-04-06T14:50:06;4.00;99.90
17033;DHT22;63208;52.178;21.016;2023-04-06T14:52:33;4.00;99.90
17033;DHT22;63208;52.178;21.016;2023-04-06T14:55:00;4.00;99.90
17033;DHT22;63208;52.178;21.016;2023-04-06T14:57:26;4.00;99.90
17033;DHT22;63208;52.178;21.016;2023-04-06T14:59:53;3.90;99.90
17033;DHT22;63208;52.178;21.016;2023-04-06T15:02:23;3.90;99.90
17033;DHT22;63208;52.178;21.016;2023-04-06T15:04:49;3.90;99.90
17033;DHT22;63208;52.178;21.016;2023-04-06T15:07:16;3.90;99.90
17033;DHT22;63208;52.178;21.016;2023-04-06T15:09:43;3.90;99.90
17033;DHT22;63208;52.178;21.016;2023-04-06T15:12:09;4.00;99.90
17033;DHT22;63208;52.178;21.016;2023-04-06T15:14:39;4.00;99.90
17033;DHT22;63208;52.178;21.016;2023-04-06T15:17:06;3.90;99.90
17033;DHT22;63208;52.178;21.016;2023-04-06T15:19:34;4.00;99.90
17033;DHT22;63208;52.178;21.016;2023-04-06T15:22:01;4.00;99.90
17033;DHT22;63208;52.178;21.016;2023-04-06T15:24:28;4.00;99.90
17033;DHT22;63208;52.178;21.016;2023-04-06T15:30:10;4.10;99.90
17033;DHT22;63208;52.178;21.016;2023-04-06T15:48:44;4.00;99.90
17033;DHT22;63208;52.178;21.016;2023-04-06T15:51:10;3.90;99.90
17033;DHT22;63208;52.178;21.016;2023-04-06T15:53:37;3.90;99.90
17033;DHT22;63208;52.178;21.016;2023-04-06T15:56:04;3.90;99.90
17033;DHT22;63208;52.178;21.016;2023-04-06T15:58:32;3.90;99.90
17033;DHT22;63208;52.178;21.016;2023-04-06T16:00:59;3.90;99.90
17033;DHT22;63208;52.178;21.016;2023-04-06T16:03:26;3.90;99.90
17033;DHT22;63208;52.178;21.016;2023-04-06T16:05:54;3.90;99.90
17033;DHT22;63208;52.178;21.016;2023-04-06T16:08:21;3.90;99.90
17033;DHT22;63208;52.178;21.016;2023-04-06T16:10:48;4.00;99.90
17033;DHT22;63208;52.178;21.016;2023-04-06T16:13:15;3.90;99.90
17033;DHT22;63208;52.178;21.016;2023-04-06T16:15:42;4.00;99.90
17033;DHT22;63208;52.178;21.016;2023-04-06T16:18:09;4.00;99.90
17033;DHT22;63208;52.178;21.016;2023-04-06T16:20:36;4.00;99.90
17033;DHT22;63208;52.178;21.016;2023-04-06T16:23:04;4.00;99.90
17033;DHT22;63208;52.178;21.016;2023-04-06T16:25:31;3.90;99.90
17033;DHT22;63208;52.178;21.016;2023-04-06T16:27:57;3.90;99.90